createdAt,value
2023-09-09T00:00:50.788Z,20.70
2023-09-09T00:03:20.391Z,20.60
2023-09-09T00:05:48.578Z,20.60
2023-09-09T00:08:20.424Z,20.60
2023-09-09T00:10:49.465Z,20.60
2023-09-09T00:13:18.002Z,20.60
2023-09-09T00:15:45.980Z,20.50
2023-09-09T00:18:13.982Z,20.50
2023-09-09T00:20:43.482Z,20.50
2023-09-09T00:23:11.435Z,20.40
2023-09-09T00:25:40.062Z,20.40
2023-09-09T00:28:09.383Z,20.40
2023-09-09T00:30:37.411Z,20.40
2023-09-09T00:33:08.713Z,20.30
2023-09-09T00:35:39.902Z,20.30
2023-09-09T00:38:10.354Z,20.20
2023-09-09T00:40:38.459Z,20.30
2023-09-09T00:43:06.432Z,20.20
2023-09-09T00:45:34.648Z,20.20
2023-09-09T00:48:03.139Z,20.20
2023-09-09T00:50:31.604Z,20.10
2023-09-09T00:53:00.011Z,20.10
2023-09-09T00:55:29.611Z,20.10
2023-09-09T00:57:57.563Z,20.10
2023-09-09T01:00:25.514Z,20.00
2023-09-09T01:02:53.974Z,20.00
2023-09-09T01:05:22.268Z,20.00
2023-09-09T01:07:51.429Z,19.90
2023-09-09T01:10:20.641Z,19.90
2023-09-09T01:12:49.927Z,19.80
2023-09-09T01:15:18.378Z,19.80
2023-09-09T01:17:46.583Z,19.70
2023-09-09T01:20:16.052Z,19.70
2023-09-09T01:22:49.760Z,19.70
2023-09-09T01:25:18.514Z,19.70
2023-09-09T01:27:46.509Z,19.60
2023-09-09T01:30:14.982Z,19.60
2023-09-09T01:32:43.078Z,19.60
2023-09-09T01:35:11.304Z,19.60
2023-09-09T01:37:39.244Z,19.50
2023-09-09T01:40:13.470Z,19.50
2023-09-09T01:42:42.272Z,19.40
2023-09-09T01:45:10.839Z,19.30
2023-09-09T01:47:38.833Z,19.30
2023-09-09T01:50:07.965Z,19.20
2023-09-09T01:52:36.057Z,19.20
2023-09-09T01:55:04.046Z,19.30
2023-09-09T01:57:33.400Z,19.20
2023-09-09T02:00:01.490Z,19.30
2023-09-09T02:02:29.485Z,19.30
2023-09-09T02:04:57.540Z,19.30
2023-09-09T02:07:25.781Z,19.30
2023-09-09T02:09:53.688Z,19.20
2023-09-09T02:12:22.491Z,19.20
2023-09-09T02:14:52.024Z,19.20
2023-09-09T02:17:19.962Z,19.20
2023-09-09T02:19:48.024Z,19.20
2023-09-09T02:22:16.055Z,19.20
2023-09-09T02:24:44.189Z,19.30
2023-09-09T02:27:12.223Z,19.20
2023-09-09T02:29:40.598Z,19.20
2023-09-09T02:32:10.144Z,19.10
2023-09-09T02:34:38.218Z,19.10
2023-09-09T02:37:17.992Z,19.00
2023-09-09T02:39:46.512Z,19.00
2023-09-09T02:42:15.934Z,18.90
2023-09-09T02:44:44.587Z,18.90
2023-09-09T02:47:14.811Z,18.80
2023-09-09T02:49:44.911Z,18.60
2023-09-09T02:52:14.777Z,18.60
2023-09-09T02:54:42.926Z,18.60
2023-09-09T02:57:10.844Z,18.60
2023-09-09T02:59:39.334Z,18.60
2023-09-09T03:02:07.380Z,18.60
2023-09-09T03:04:36.660Z,18.70
2023-09-09T03:07:04.811Z,18.70
2023-09-09T03:09:34.432Z,18.70
2023-09-09T03:12:03.923Z,18.60
2023-09-09T03:14:31.914Z,18.60
2023-09-09T03:17:00.767Z,18.50
2023-09-09T03:19:28.773Z,18.50
2023-09-09T03:21:58.706Z,18.50
2023-09-09T03:24:26.990Z,18.50
2023-09-09T03:26:55.616Z,18.50
2023-09-09T03:29:23.724Z,18.40
2023-09-09T03:31:51.732Z,18.40
2023-09-09T03:34:19.836Z,18.40
2023-09-09T03:36:47.938Z,18.30
2023-09-09T03:39:17.274Z,18.30
2023-09-09T03:41:45.216Z,18.30
2023-09-09T03:44:13.373Z,18.20
2023-09-09T03:46:41.464Z,18.20
2023-09-09T03:49:09.455Z,18.30
2023-09-09T03:51:38.632Z,18.20
2023-09-09T03:54:06.822Z,18.20
2023-09-09T03:56:36.175Z,18.20
2023-09-09T03:59:04.213Z,18.10
2023-09-09T04:01:32.221Z,18.20
2023-09-09T04:04:00.297Z,18.20
2023-09-09T04:06:28.613Z,18.10
2023-09-09T04:08:58.440Z,18.10
2023-09-09T04:11:26.647Z,18.00
2023-09-09T04:13:56.202Z,18.00
2023-09-09T04:16:24.168Z,18.00
2023-09-09T04:18:52.169Z,17.90
2023-09-09T04:21:20.412Z,17.90
2023-09-09T04:23:48.448Z,18.00
2023-09-09T04:26:16.493Z,18.00
2023-09-09T04:28:44.646Z,18.00
2023-09-09T04:31:14.065Z,18.00
2023-09-09T04:33:42.095Z,18.00
2023-09-09T04:36:10.347Z,17.90
2023-09-09T04:38:41.394Z,17.90
2023-09-09T04:41:10.859Z,18.00
2023-09-09T04:43:39.234Z,18.00
2023-09-09T04:46:07.512Z,17.90
2023-09-09T04:48:37.043Z,17.90
2023-09-09T04:51:05.037Z,17.90
2023-09-09T04:53:33.027Z,18.00
2023-09-09T04:56:02.167Z,18.00
2023-09-09T04:58:31.899Z,18.10
2023-09-09T05:01:00.464Z,18.10
2023-09-09T05:03:28.565Z,18.20
2023-09-09T05:05:57.872Z,18.20
2023-09-09T05:08:26.050Z,18.20
2023-09-09T05:10:54.025Z,18.20
2023-09-09T05:13:22.266Z,18.20
2023-09-09T05:15:50.195Z,18.30
2023-09-09T05:18:18.180Z,18.10
2023-09-09T05:20:46.429Z,18.10
2023-09-09T05:23:15.947Z,18.20
2023-09-09T05:25:44.406Z,18.20
2023-09-09T05:28:12.449Z,18.20
2023-09-09T05:30:41.184Z,18.10
2023-09-09T05:33:09.300Z,18.10
2023-09-09T05:35:37.337Z,18.10
2023-09-09T05:38:05.566Z,18.00
2023-09-09T05:40:34.841Z,18.10
2023-09-09T05:43:03.053Z,18.10
2023-09-09T05:45:31.192Z,18.20
2023-09-09T05:47:59.439Z,18.30
2023-09-09T05:50:27.808Z,18.30
2023-09-09T05:52:58.985Z,18.30
2023-09-09T05:55:28.941Z,18.30
2023-09-09T05:57:58.658Z,18.40
2023-09-09T06:00:26.604Z,18.40
2023-09-09T06:02:54.694Z,18.50
2023-09-09T06:05:23.040Z,18.50
2023-09-09T06:07:51.024Z,18.50
2023-09-09T06:10:19.155Z,18.50
2023-09-09T06:12:47.344Z,18.50
2023-09-09T06:15:16.869Z,18.60
2023-09-09T06:17:44.822Z,18.70
2023-09-09T06:20:15.297Z,18.70
2023-09-09T06:22:43.276Z,18.60
2023-09-09T06:25:11.246Z,18.70
2023-09-09T06:27:39.262Z,18.80
2023-09-09T06:30:08.498Z,18.90
2023-09-09T06:32:37.842Z,18.90
2023-09-09T06:35:08.249Z,19.00
2023-09-09T06:37:36.219Z,19.00
2023-09-09T06:40:04.586Z,19.10
2023-09-09T06:42:33.101Z,19.10
2023-09-09T06:45:01.409Z,19.00
2023-09-09T06:47:29.348Z,19.10
2023-09-09T06:49:58.734Z,19.20
2023-09-09T06:52:26.624Z,19.20
2023-09-09T06:54:54.547Z,19.20
2023-09-09T06:57:22.622Z,19.30
2023-09-09T06:59:52.345Z,19.40
2023-09-09T07:02:20.417Z,19.40
2023-09-09T07:04:48.744Z,19.40
2023-09-09T07:07:19.217Z,19.30
2023-09-09T07:09:49.116Z,19.50
2023-09-09T07:12:17.142Z,19.50
2023-09-09T07:14:45.084Z,19.60
2023-09-09T07:17:13.242Z,19.60
2023-09-09T07:19:41.144Z,19.70
2023-09-09T07:22:09.425Z,19.80
2023-09-09T07:24:38.918Z,19.80
2023-09-09T07:27:07.094Z,19.90
2023-09-09T07:29:35.188Z,20.00
2023-09-09T07:32:03.980Z,20.00
2023-09-09T07:34:32.140Z,20.00
2023-09-09T07:37:00.318Z,19.90
2023-09-09T07:39:29.300Z,19.90
2023-09-09T07:41:58.604Z,19.80
2023-09-09T07:44:26.570Z,19.90
2023-09-09T07:46:54.660Z,20.00
2023-09-09T07:49:23.089Z,20.10
2023-09-09T07:51:51.368Z,20.10
2023-09-09T07:54:19.413Z,20.20
2023-09-09T07:56:47.411Z,20.30
2023-09-09T07:59:16.741Z,20.40
2023-09-09T08:01:45.798Z,20.50
2023-09-09T08:04:14.098Z,20.50
2023-09-09T08:06:42.363Z,20.60
2023-09-09T08:09:10.419Z,20.70
2023-09-09T08:11:38.491Z,21.00
2023-09-09T08:14:06.572Z,21.20
2023-09-09T08:16:36.210Z,21.20
2023-09-09T08:19:04.766Z,21.20
2023-09-09T08:21:32.842Z,21.20
2023-09-09T08:24:01.826Z,21.10
2023-09-09T08:26:30.984Z,21.20
2023-09-09T08:28:58.936Z,21.40
2023-09-09T08:31:27.372Z,21.60
2023-09-09T08:33:56.741Z,21.50
2023-09-09T08:36:24.715Z,21.60
2023-09-09T08:38:57.967Z,22.00
2023-09-09T08:41:42.868Z,22.30
2023-09-09T08:44:16.999Z,22.60
2023-09-09T08:46:44.984Z,22.60
2023-09-09T08:49:16.099Z,22.90
2023-09-09T08:51:51.315Z,23.10
2023-09-09T08:54:19.406Z,23.20
2023-09-09T08:56:47.934Z,23.40
2023-09-09T08:59:16.344Z,23.60
2023-09-09T09:01:45.649Z,23.40
2023-09-09T09:04:18.115Z,23.40
2023-09-09T09:06:49.336Z,23.60
2023-09-09T09:09:17.897Z,23.60
2023-09-09T09:11:46.451Z,23.90
2023-09-09T09:14:14.678Z,23.90
2023-09-09T09:16:43.456Z,24.30
2023-09-09T09:19:22.741Z,24.40
2023-09-09T09:21:51.917Z,24.50
2023-09-09T09:24:23.387Z,24.50
2023-09-09T09:26:51.385Z,24.90
2023-09-09T09:29:19.486Z,25.00
2023-09-09T09:31:52.962Z,25.00
2023-09-09T09:34:23.492Z,25.20
2023-09-09T09:36:51.702Z,25.60
2023-09-09T09:39:21.170Z,25.60
2023-09-09T09:41:50.019Z,25.80
2023-09-09T09:44:22.211Z,25.90
2023-09-09T09:47:04.702Z,26.20
2023-09-09T09:49:42.641Z,26.30
2023-09-09T09:52:11.160Z,26.20
2023-09-09T09:54:40.013Z,26.40
2023-09-09T09:57:08.413Z,26.70
2023-09-09T09:59:39.300Z,26.70
2023-09-09T10:02:07.600Z,26.90
2023-09-09T10:04:43.317Z,27.00
2023-09-09T10:07:13.690Z,27.20
2023-09-09T10:09:47.207Z,27.50
2023-09-09T10:12:29.834Z,27.60
2023-09-09T10:15:07.957Z,27.90
2023-09-09T10:17:37.635Z,28.10
2023-09-09T10:20:09.808Z,28.00
2023-09-09T10:22:38.730Z,28.00
2023-09-09T10:25:08.489Z,28.20
2023-09-09T10:27:37.636Z,28.30
2023-09-09T10:30:09.256Z,28.40
2023-09-09T10:32:37.941Z,28.40
2023-09-09T10:35:09.101Z,28.70
2023-09-09T10:37:39.632Z,28.50
2023-09-09T10:40:10.671Z,28.50
2023-09-09T10:42:40.427Z,28.90
2023-09-09T10:45:25.057Z,29.10
2023-09-09T10:47:55.866Z,29.20
2023-09-09T10:50:25.453Z,29.10
2023-09-09T10:53:14.069Z,29.20
2023-09-09T10:55:42.542Z,29.10
2023-09-09T10:58:11.381Z,29.40
2023-09-09T11:00:41.583Z,29.50
2023-09-09T11:03:13.561Z,29.50
2023-09-09T11:06:06.451Z,29.80
2023-09-09T11:08:39.641Z,29.90
2023-09-09T11:11:13.610Z,29.70
2023-09-09T11:13:43.872Z,29.60
2023-09-09T11:16:26.853Z,29.80
2023-09-09T11:18:55.430Z,30.10
2023-09-09T11:21:25.556Z,30.30
2023-09-09T11:23:54.290Z,30.70
2023-09-09T11:26:23.250Z,30.60
2023-09-09T11:28:51.641Z,30.70
2023-09-09T11:31:20.149Z,30.50
2023-09-09T11:33:48.337Z,30.80
2023-09-09T11:36:19.974Z,30.80
2023-09-09T11:38:49.403Z,30.80
2023-09-09T11:41:21.691Z,31.00
2023-09-09T11:44:02.805Z,31.00
2023-09-09T11:46:34.559Z,31.10
2023-09-09T11:49:02.746Z,31.20
2023-09-09T11:51:34.270Z,31.70
2023-09-09T11:54:04.085Z,31.90
2023-09-09T11:56:34.057Z,31.50
2023-09-09T11:59:07.711Z,31.80
2023-09-09T12:01:43.447Z,31.50
2023-09-09T12:04:12.373Z,31.70
2023-09-09T12:06:41.558Z,31.70
2023-09-09T12:09:11.358Z,32.20
2023-09-09T12:11:42.156Z,32.30
2023-09-09T12:14:11.674Z,31.60
2023-09-09T12:16:41.395Z,31.90
2023-09-09T12:19:14.733Z,30.90
2023-09-09T12:21:47.455Z,31.40
2023-09-09T12:24:17.405Z,31.20
2023-09-09T12:26:53.746Z,31.70
2023-09-09T12:29:22.996Z,32.10
2023-09-09T12:31:55.873Z,31.70
2023-09-09T12:34:26.384Z,31.50
2023-09-09T12:36:59.052Z,31.90
2023-09-09T12:39:30.662Z,32.30
2023-09-09T12:42:02.602Z,32.50
2023-09-09T12:44:33.525Z,32.60
2023-09-09T12:47:05.466Z,32.60
2023-09-09T12:49:35.517Z,32.50
2023-09-09T12:52:04.160Z,32.20
2023-09-09T12:54:34.175Z,32.20
2023-09-09T12:57:02.519Z,32.50
2023-09-09T12:59:31.094Z,32.30
2023-09-09T13:02:00.119Z,31.70
2023-09-09T13:04:28.596Z,32.40
2023-09-09T13:06:57.479Z,32.80
2023-09-09T13:09:25.607Z,33.00
2023-09-09T13:11:55.568Z,32.90
2023-09-09T13:14:26.622Z,33.30
2023-09-09T13:16:55.837Z,32.90
2023-09-09T13:19:27.724Z,33.20
2023-09-09T13:21:57.967Z,33.40
2023-09-09T13:24:25.990Z,33.30
2023-09-09T13:26:55.333Z,33.10
2023-09-09T13:29:23.397Z,33.30
2023-09-09T13:31:51.530Z,33.10
2023-09-09T13:34:19.752Z,33.10
2023-09-09T13:36:47.824Z,32.80
2023-09-09T13:39:15.902Z,33.10
2023-09-09T13:41:44.130Z,33.10
2023-09-09T13:44:13.623Z,33.20
2023-09-09T13:46:41.732Z,33.40
2023-09-09T13:49:09.909Z,33.20
2023-09-09T13:51:37.876Z,33.40
2023-09-09T13:54:06.313Z,33.00
2023-09-09T13:56:34.372Z,32.80
2023-09-09T13:59:02.298Z,32.90
2023-09-09T14:01:31.734Z,33.00
2023-09-09T14:03:59.797Z,33.10
2023-09-09T14:06:29.387Z,32.50
2023-09-09T14:08:57.406Z,32.50
2023-09-09T14:11:25.644Z,32.40
2023-09-09T14:13:53.613Z,32.40
2023-09-09T14:16:21.721Z,32.20
2023-09-09T14:18:51.112Z,31.90
2023-09-09T14:21:20.295Z,31.60
2023-09-09T14:23:48.537Z,31.40
2023-09-09T14:26:17.822Z,31.00
2023-09-09T14:28:45.849Z,30.90
2023-09-09T14:31:14.114Z,30.90
2023-09-09T14:33:42.303Z,30.70
2023-09-09T14:36:11.635Z,30.30
2023-09-09T14:38:40.018Z,30.40
2023-09-09T14:41:08.382Z,30.40
2023-09-09T14:43:36.282Z,30.20
2023-09-09T14:46:04.534Z,30.10
2023-09-09T14:48:37.277Z,30.10
2023-09-09T14:51:05.641Z,29.90
2023-09-09T14:53:35.266Z,30.00
2023-09-09T14:56:03.427Z,30.00
2023-09-09T14:58:31.492Z,29.90
2023-09-09T15:00:59.432Z,29.90
2023-09-09T15:03:27.351Z,29.90
2023-09-09T15:05:55.380Z,29.80
2023-09-09T15:08:23.323Z,29.70
2023-09-09T15:10:52.590Z,29.80
2023-09-09T15:13:20.622Z,29.60
2023-09-09T15:15:48.588Z,29.40
2023-09-09T15:18:16.783Z,29.30
2023-09-09T15:20:44.921Z,29.30
2023-09-09T15:23:12.881Z,29.30
2023-09-09T15:25:40.918Z,29.20
2023-09-09T15:28:10.423Z,29.10
2023-09-09T15:30:38.328Z,29.00
2023-09-09T15:33:06.703Z,29.00
2023-09-09T15:35:34.854Z,29.10
2023-09-09T15:38:02.760Z,29.10
2023-09-09T15:40:30.692Z,28.90
2023-09-09T15:42:58.775Z,28.90
2023-09-09T15:45:30.681Z,28.90
2023-09-09T15:47:58.776Z,28.80
2023-09-09T15:50:26.779Z,28.70
2023-09-09T15:52:54.821Z,28.70
2023-09-09T15:55:22.916Z,28.70
2023-09-09T15:57:50.835Z,28.80
2023-09-09T16:00:19.229Z,28.60
2023-09-09T16:02:50.253Z,28.70
2023-09-09T16:05:18.372Z,28.50
2023-09-09T16:07:46.340Z,28.50
2023-09-09T16:10:14.472Z,28.50
2023-09-09T16:12:42.559Z,28.40
2023-09-09T16:15:11.059Z,28.30
2023-09-09T16:17:39.060Z,28.30
2023-09-09T16:20:09.692Z,28.30
2023-09-09T16:22:39.815Z,28.30
2023-09-09T16:25:08.743Z,28.30
2023-09-09T16:27:36.982Z,28.30
2023-09-09T16:30:07.062Z,28.30
2023-09-09T16:32:36.049Z,28.20
2023-09-09T16:35:04.511Z,28.10
2023-09-09T16:37:35.154Z,28.10
2023-09-09T16:40:03.398Z,28.10
2023-09-09T16:42:31.589Z,28.00
2023-09-09T16:44:59.557Z,28.00
2023-09-09T16:47:27.648Z,28.00
2023-09-09T16:49:55.644Z,28.00
2023-09-09T16:52:23.692Z,28.00
2023-09-09T16:54:53.105Z,27.90
2023-09-09T16:57:21.039Z,28.00
2023-09-09T16:59:48.968Z,27.90
2023-09-09T17:02:17.036Z,27.90
2023-09-09T17:04:45.045Z,27.80
2023-09-09T17:07:12.962Z,27.80
2023-09-09T17:09:41.284Z,27.80
2023-09-09T17:12:10.747Z,27.70
2023-09-09T17:14:38.648Z,27.70
2023-09-09T17:17:07.817Z,27.60
2023-09-09T17:19:37.686Z,27.60
2023-09-09T17:22:06.285Z,27.50
2023-09-09T17:24:34.510Z,27.40
2023-09-09T17:27:02.908Z,27.30
2023-09-09T17:29:32.260Z,27.20
2023-09-09T17:32:02.869Z,27.20
2023-09-09T17:34:39.755Z,27.10
2023-09-09T17:37:08.171Z,27.00
2023-09-09T17:39:36.261Z,26.90
2023-09-09T17:42:04.318Z,26.80
2023-09-09T17:44:33.718Z,26.70
2023-09-09T17:47:01.809Z,26.70
2023-09-09T17:49:29.828Z,26.60
2023-09-09T17:51:57.905Z,26.40
2023-09-09T17:54:26.981Z,26.30
2023-09-09T17:56:55.977Z,26.10
2023-09-09T17:59:24.086Z,26.10
2023-09-09T18:01:53.651Z,26.00
2023-09-09T18:04:21.764Z,25.90
2023-09-09T18:06:49.959Z,25.80
2023-09-09T18:09:18.047Z,25.70
2023-09-09T18:11:45.958Z,25.70
2023-09-09T18:14:13.986Z,25.60
2023-09-09T18:16:42.017Z,25.50
2023-09-09T18:19:11.508Z,25.40
2023-09-09T18:21:39.619Z,25.40
2023-09-09T18:24:08.247Z,25.30
2023-09-09T18:26:36.194Z,25.30
2023-09-09T18:29:04.280Z,25.20
2023-09-09T18:31:32.709Z,25.30
2023-09-09T18:34:02.680Z,25.30
2023-09-09T18:36:32.431Z,25.30
2023-09-09T18:39:00.746Z,25.30
2023-09-09T18:41:29.082Z,25.30
2023-09-09T18:43:57.654Z,25.30
2023-09-09T18:46:26.224Z,25.20
2023-09-09T18:48:54.548Z,25.00
2023-09-09T18:51:23.590Z,24.90
2023-09-09T18:53:52.925Z,24.80
2023-09-09T18:56:20.874Z,24.70
2023-09-09T18:58:49.458Z,24.70
2023-09-09T19:01:20.107Z,24.60
2023-09-09T19:03:48.181Z,24.60
2023-09-09T19:06:16.347Z,24.50
2023-09-09T19:08:44.639Z,24.40
2023-09-09T19:11:14.839Z,24.40
2023-09-09T19:13:42.930Z,24.30
2023-09-09T19:16:10.861Z,24.20
2023-09-09T19:18:39.004Z,24.20
2023-09-09T19:21:07.362Z,24.20
2023-09-09T19:23:35.433Z,24.10
2023-09-09T19:26:05.056Z,24.10
2023-09-09T19:28:35.156Z,24.10
2023-09-09T19:31:03.648Z,24.00
2023-09-09T19:33:31.864Z,23.90
2023-09-09T19:35:59.949Z,23.90
2023-09-09T19:38:28.166Z,23.90
2023-09-09T19:40:56.362Z,23.90
2023-09-09T19:43:24.765Z,23.80
2023-09-09T19:45:54.082Z,23.70
2023-09-09T19:48:22.075Z,23.70
2023-09-09T19:50:50.471Z,23.70
2023-09-09T19:53:19.613Z,23.60
2023-09-09T19:55:48.931Z,23.60
2023-09-09T19:58:17.011Z,23.50
2023-09-09T20:00:47.069Z,23.50
2023-09-09T20:03:16.401Z,23.40
2023-09-09T20:05:50.004Z,23.40
2023-09-09T20:08:17.907Z,23.30
2023-09-09T20:10:46.237Z,23.30
2023-09-09T20:13:15.576Z,23.30
2023-09-09T20:15:43.513Z,23.30
2023-09-09T20:18:11.638Z,23.20
2023-09-09T20:20:41.975Z,23.20
2023-09-09T20:23:11.092Z,23.20
2023-09-09T20:25:39.794Z,23.10
2023-09-09T20:28:08.046Z,23.10
2023-09-09T20:30:36.541Z,23.00
2023-09-09T20:33:07.051Z,22.90
2023-09-09T20:35:36.875Z,22.90
2023-09-09T20:38:06.381Z,22.80
2023-09-09T20:40:34.601Z,22.80
2023-09-09T20:43:03.304Z,22.80
2023-09-09T20:45:31.478Z,22.70
2023-09-09T20:47:59.563Z,22.70
2023-09-09T20:50:30.015Z,22.60
2023-09-09T20:52:58.417Z,22.60
2023-09-09T20:55:27.839Z,22.60
2023-09-09T20:57:56.345Z,22.60
2023-09-09T21:00:24.697Z,22.50
2023-09-09T21:02:52.995Z,22.50
2023-09-09T21:05:22.203Z,22.50
2023-09-09T21:07:50.393Z,22.40
2023-09-09T21:10:19.755Z,22.30
2023-09-09T21:12:49.503Z,22.30
2023-09-09T21:15:18.735Z,22.30
2023-09-09T21:17:47.478Z,22.20
2023-09-09T21:20:15.559Z,22.20
2023-09-09T21:22:43.571Z,22.20
2023-09-09T21:25:11.730Z,22.10
2023-09-09T21:27:40.168Z,22.10
2023-09-09T21:30:10.340Z,22.10
2023-09-09T21:32:38.882Z,22.00
2023-09-09T21:35:07.440Z,22.00
2023-09-09T21:37:35.563Z,21.90
2023-09-09T21:40:03.987Z,21.90
2023-09-09T21:42:32.296Z,21.80
2023-09-09T21:45:00.219Z,21.90
2023-09-09T21:47:29.686Z,21.90
2023-09-09T21:49:57.894Z,21.90
2023-09-09T21:52:26.504Z,21.80
2023-09-09T21:54:54.700Z,21.90
2023-09-09T21:57:23.105Z,21.80
2023-09-09T21:59:51.299Z,21.80
2023-09-09T22:02:19.234Z,21.90
2023-09-09T22:04:48.610Z,21.80
2023-09-09T22:07:16.948Z,21.80
2023-09-09T22:09:45.275Z,21.80
2023-09-09T22:12:13.542Z,21.80
2023-09-09T22:14:41.557Z,21.80
2023-09-09T22:17:09.825Z,21.80
2023-09-09T22:19:38.349Z,21.80
2023-09-09T22:22:07.791Z,21.80
2023-09-09T22:24:35.711Z,21.70
2023-09-09T22:27:03.872Z,21.70
2023-09-09T22:29:32.177Z,21.70
2023-09-09T22:32:00.393Z,21.80
2023-09-09T22:34:28.663Z,21.80
2023-09-09T22:36:57.703Z,21.80
2023-09-09T22:39:27.021Z,21.80
2023-09-09T22:41:54.941Z,21.90
2023-09-09T22:44:23.173Z,21.90
2023-09-09T22:46:52.236Z,21.80
2023-09-09T22:49:20.253Z,21.80
2023-09-09T22:51:48.289Z,21.70
2023-09-09T22:54:16.246Z,21.60
2023-09-09T22:56:45.604Z,21.60
2023-09-09T22:59:15.088Z,21.50
2023-09-09T23:01:43.569Z,21.50
2023-09-09T23:04:11.945Z,21.50
2023-09-09T23:06:40.174Z,21.50
2023-09-09T23:09:08.088Z,21.60
2023-09-09T23:11:36.017Z,21.50
2023-09-09T23:14:05.432Z,21.50
2023-09-09T23:16:38.415Z,21.50
2023-09-09T23:19:08.058Z,21.50
2023-09-09T23:21:36.327Z,21.40
2023-09-09T23:24:05.032Z,21.50
2023-09-09T23:26:33.573Z,21.40
2023-09-09T23:29:01.784Z,21.40
2023-09-09T23:31:31.128Z,21.30
2023-09-09T23:33:59.165Z,21.40
2023-09-09T23:36:27.229Z,21.40
2023-09-09T23:38:55.395Z,21.40
2023-09-09T23:41:23.512Z,21.40
2023-09-09T23:43:51.471Z,21.40
2023-09-09T23:46:19.654Z,21.40
2023-09-09T23:48:48.932Z,21.40
2023-09-09T23:51:17.111Z,21.30
2023-09-09T23:53:45.379Z,21.30
2023-09-09T23:56:13.957Z,21.30
2023-09-09T23:58:42.070Z,21.30
